sensor_id;sensor_type;location;lat;lon;timestamp;P1;durP1;ratioP1;P2;durP2;ratioP2
62584;SDS011;48643;51.670;5.808;2023-07-24T00:01:52;3.97;;;2.50;;
62584;SDS011;48643;51.670;5.808;2023-07-24T00:04:19;3.03;;;2.22;;
62584;SDS011;48643;51.670;5.808;2023-07-24T00:06:46;3.17;;;2.10;;
62584;SDS011;48643;51.670;5.808;2023-07-24T00:09:12;2.63;;;2.25;;
62584;SDS011;48643;51.670;5.808;2023-07-24T00:11:39;4.07;;;2.30;;
62584;SDS011;48643;51.670;5.808;2023-07-24T00:14:07;3.13;;;2.13;;
62584;SDS011;48643;51.670;5.808;2023-07-24T00:16:33;3.00;;;2.17;;
62584;SDS011;48643;51.670;5.808;2023-07-24T00:19:00;3.00;;;2.20;;
62584;SDS011;48643;51.670;5.808;2023-07-24T00:21:28;4.32;;;2.20;;
62584;SDS011;48643;51.670;5.808;2023-07-24T00:23:55;4.05;;;2.20;;
62584;SDS011;48643;51.670;5.808;2023-07-24T00:26:22;3.22;;;2.33;;
62584;SDS011;48643;51.670;5.808;2023-07-24T00:28:49;3.22;;;2.05;;
62584;SDS011;48643;51.670;5.808;2023-07-24T00:31:16;3.92;;;2.20;;
62584;SDS011;48643;51.670;5.808;2023-07-24T00:33:43;2.95;;;2.20;;
62584;SDS011;48643;51.670;5.808;2023-07-24T00:36:10;2.50;;;2.13;;
62584;SDS011;48643;51.670;5.808;2023-07-24T00:38:38;4.18;;;2.00;;
62584;SDS011;48643;51.670;5.808;2023-07-24T00:41:05;2.75;;;2.10;;
62584;SDS011;48643;51.670;5.808;2023-07-24T00:43:32;2.88;;;2.22;;
62584;SDS011;48643;51.670;5.808;2023-07-24T00:46:00;2.92;;;2.20;;
62584;SDS011;48643;51.670;5.808;2023-07-24T00:48:28;4.97;;;2.38;;
62584;SDS011;48643;51.670;5.808;2023-07-24T00:50:56;4.25;;;2.30;;
62584;SDS011;48643;51.670;5.808;2023-07-24T00:53:22;3.60;;;2.50;;
62584;SDS011;48643;51.670;5.808;2023-07-24T00:55:49;2.70;;;2.15;;
62584;SDS011;48643;51.670;5.808;2023-07-24T00:58:16;2.45;;;2.10;;
62584;SDS011;48643;51.670;5.808;2023-07-24T01:00:45;4.63;;;2.25;;
62584;SDS011;48643;51.670;5.808;2023-07-24T01:03:11;2.72;;;2.10;;
62584;SDS011;48643;51.670;5.808;2023-07-24T01:05:38;3.15;;;2.20;;
62584;SDS011;48643;51.670;5.808;2023-07-24T01:08:07;2.47;;;2.05;;
62584;SDS011;48643;51.670;5.808;2023-07-24T01:10:34;3.92;;;2.25;;
62584;SDS011;48643;51.670;5.808;2023-07-24T01:13:02;3.13;;;2.05;;
62584;SDS011;48643;51.670;5.808;2023-07-24T01:15:54;2.65;;;2.15;;
62584;SDS011;48643;51.670;5.808;2023-07-24T01:18:24;3.22;;;2.20;;
62584;SDS011;48643;51.670;5.808;2023-07-24T01:20:53;4.47;;;2.40;;
62584;SDS011;48643;51.670;5.808;2023-07-24T01:23:28;3.08;;;2.10;;
62584;SDS011;48643;51.670;5.808;2023-07-24T01:26:00;2.67;;;2.00;;
62584;SDS011;48643;51.670;5.808;2023-07-24T01:28:31;2.78;;;2.20;;
62584;SDS011;48643;51.670;5.808;2023-07-24T01:30:58;3.75;;;2.22;;
62584;SDS011;48643;51.670;5.808;2023-07-24T01:33:25;3.53;;;2.20;;
62584;SDS011;48643;51.670;5.808;2023-07-24T01:35:55;2.70;;;2.20;;
62584;SDS011;48643;51.670;5.808;2023-07-24T01:38:24;4.82;;;2.30;;
62584;SDS011;48643;51.670;5.808;2023-07-24T01:40:52;3.85;;;2.15;;
62584;SDS011;48643;51.670;5.808;2023-07-24T01:43:20;2.55;;;2.30;;
62584;SDS011;48643;51.670;5.808;2023-07-24T01:45:47;2.92;;;1.90;;
62584;SDS011;48643;51.670;5.808;2023-07-24T01:48:14;3.03;;;2.28;;
62584;SDS011;48643;51.670;5.808;2023-07-24T01:50:41;6.05;;;2.25;;
62584;SDS011;48643;51.670;5.808;2023-07-24T01:53:08;3.78;;;2.10;;
62584;SDS011;48643;51.670;5.808;2023-07-24T01:55:35;2.53;;;2.00;;
62584;SDS011;48643;51.670;5.808;2023-07-24T01:58:02;5.10;;;2.40;;
62584;SDS011;48643;51.670;5.808;2023-07-24T02:00:30;3.10;;;2.10;;
62584;SDS011;48643;51.670;5.808;2023-07-24T02:02:56;3.72;;;2.22;;
62584;SDS011;48643;51.670;5.808;2023-07-24T02:05:24;3.17;;;2.20;;
62584;SDS011;48643;51.670;5.808;2023-07-24T02:07:50;2.72;;;2.00;;
62584;SDS011;48643;51.670;5.808;2023-07-24T02:10:17;3.00;;;2.25;;
62584;SDS011;48643;51.670;5.808;2023-07-24T02:12:44;4.05;;;2.10;;
62584;SDS011;48643;51.670;5.808;2023-07-24T02:15:11;3.60;;;2.22;;
62584;SDS011;48643;51.670;5.808;2023-07-24T02:17:39;3.10;;;2.17;;
62584;SDS011;48643;51.670;5.808;2023-07-24T02:20:06;2.60;;;2.10;;
62584;SDS011;48643;51.670;5.808;2023-07-24T02:22:33;2.85;;;2.03;;
62584;SDS011;48643;51.670;5.808;2023-07-24T02:25:00;2.53;;;2.13;;
62584;SDS011;48643;51.670;5.808;2023-07-24T02:27:28;5.13;;;2.28;;
62584;SDS011;48643;51.670;5.808;2023-07-24T02:30:00;2.50;;;2.10;;
62584;SDS011;48643;51.670;5.808;2023-07-24T02:32:28;3.00;;;2.13;;
62584;SDS011;48643;51.670;5.808;2023-07-24T02:34:55;3.47;;;2.40;;
62584;SDS011;48643;51.670;5.808;2023-07-24T02:37:22;2.83;;;2.10;;
62584;SDS011;48643;51.670;5.808;2023-07-24T02:39:48;3.00;;;2.40;;
62584;SDS011;48643;51.670;5.808;2023-07-24T02:42:15;2.83;;;2.17;;
62584;SDS011;48643;51.670;5.808;2023-07-24T02:44:43;3.40;;;2.35;;
62584;SDS011;48643;51.670;5.808;2023-07-24T02:47:10;2.70;;;2.20;;
62584;SDS011;48643;51.670;5.808;2023-07-24T02:49:36;3.58;;;2.08;;
62584;SDS011;48643;51.670;5.808;2023-07-24T02:52:05;3.38;;;2.15;;
62584;SDS011;48643;51.670;5.808;2023-07-24T02:54:31;2.70;;;2.20;;
62584;SDS011;48643;51.670;5.808;2023-07-24T02:56:58;3.90;;;2.30;;
62584;SDS011;48643;51.670;5.808;2023-07-24T02:59:25;2.83;;;2.08;;
62584;SDS011;48643;51.670;5.808;2023-07-24T03:01:52;7.95;;;2.30;;
62584;SDS011;48643;51.670;5.808;2023-07-24T03:04:19;4.50;;;2.33;;
62584;SDS011;48643;51.670;5.808;2023-07-24T03:06:46;4.32;;;2.20;;
62584;SDS011;48643;51.670;5.808;2023-07-24T03:09:13;3.28;;;2.33;;
62584;SDS011;48643;51.670;5.808;2023-07-24T03:11:40;2.40;;;2.00;;
62584;SDS011;48643;51.670;5.808;2023-07-24T03:14:06;2.85;;;2.40;;
62584;SDS011;48643;51.670;5.808;2023-07-24T03:16:33;3.90;;;2.42;;
62584;SDS011;48643;51.670;5.808;2023-07-24T03:19:00;5.30;;;2.33;;
62584;SDS011;48643;51.670;5.808;2023-07-24T03:21:27;3.17;;;2.30;;
62584;SDS011;48643;51.670;5.808;2023-07-24T03:23:54;3.55;;;2.38;;
62584;SDS011;48643;51.670;5.808;2023-07-24T03:26:20;3.25;;;2.55;;
62584;SDS011;48643;51.670;5.808;2023-07-24T03:28:47;3.05;;;2.20;;
62584;SDS011;48643;51.670;5.808;2023-07-24T03:31:14;2.97;;;2.35;;
62584;SDS011;48643;51.670;5.808;2023-07-24T03:33:41;4.18;;;2.30;;
62584;SDS011;48643;51.670;5.808;2023-07-24T03:36:08;3.17;;;2.30;;
62584;SDS011;48643;51.670;5.808;2023-07-24T03:38:35;3.80;;;2.47;;
62584;SDS011;48643;51.670;5.808;2023-07-24T03:41:02;3.97;;;2.50;;
62584;SDS011;48643;51.670;5.808;2023-07-24T03:43:29;3.08;;;2.30;;
62584;SDS011;48643;51.670;5.808;2023-07-24T03:45:56;3.08;;;2.42;;
62584;SDS011;48643;51.670;5.808;2023-07-24T03:48:23;3.65;;;2.30;;
62584;SDS011;48643;51.670;5.808;2023-07-24T03:50:50;4.28;;;2.70;;
62584;SDS011;48643;51.670;5.808;2023-07-24T03:53:19;4.03;;;2.45;;
62584;SDS011;48643;51.670;5.808;2023-07-24T03:55:46;2.80;;;2.22;;
62584;SDS011;48643;51.670;5.808;2023-07-24T03:58:13;3.28;;;2.42;;
62584;SDS011;48643;51.670;5.808;2023-07-24T04:00:40;4.40;;;2.55;;
62584;SDS011;48643;51.670;5.808;2023-07-24T04:03:07;3.00;;;2.25;;
62584;SDS011;48643;51.670;5.808;2023-07-24T04:05:35;3.50;;;2.45;;
62584;SDS011;48643;51.670;5.808;2023-07-24T04:08:02;4.70;;;2.60;;
62584;SDS011;48643;51.670;5.808;2023-07-24T04:10:29;3.33;;;2.42;;
62584;SDS011;48643;51.670;5.808;2023-07-24T04:12:57;4.85;;;2.53;;
62584;SDS011;48643;51.670;5.808;2023-07-24T04:15:24;2.65;;;2.10;;
62584;SDS011;48643;51.670;5.808;2023-07-24T04:17:50;2.83;;;2.30;;
62584;SDS011;48643;51.670;5.808;2023-07-24T04:20:17;3.28;;;2.50;;
62584;SDS011;48643;51.670;5.808;2023-07-24T04:22:44;4.60;;;2.45;;
62584;SDS011;48643;51.670;5.808;2023-07-24T04:25:11;4.60;;;2.47;;
62584;SDS011;48643;51.670;5.808;2023-07-24T04:27:38;3.67;;;2.47;;
62584;SDS011;48643;51.670;5.808;2023-07-24T04:30:05;3.38;;;2.40;;
62584;SDS011;48643;51.670;5.808;2023-07-24T04:32:32;3.20;;;2.47;;
62584;SDS011;48643;51.670;5.808;2023-07-24T04:34:59;3.85;;;2.70;;
62584;SDS011;48643;51.670;5.808;2023-07-24T04:37:26;3.42;;;2.50;;
62584;SDS011;48643;51.670;5.808;2023-07-24T04:39:52;3.45;;;2.33;;
62584;SDS011;48643;51.670;5.808;2023-07-24T04:42:19;2.90;;;2.40;;
62584;SDS011;48643;51.670;5.808;2023-07-24T04:44:46;3.55;;;2.33;;
62584;SDS011;48643;51.670;5.808;2023-07-24T04:47:13;3.22;;;2.28;;
62584;SDS011;48643;51.670;5.808;2023-07-24T04:49:40;2.90;;;2.38;;
62584;SDS011;48643;51.670;5.808;2023-07-24T04:52:07;3.58;;;2.63;;
62584;SDS011;48643;51.670;5.808;2023-07-24T04:54:33;2.95;;;2.25;;
62584;SDS011;48643;51.670;5.808;2023-07-24T04:57:00;3.20;;;2.25;;
62584;SDS011;48643;51.670;5.808;2023-07-24T04:59:27;3.90;;;2.42;;
62584;SDS011;48643;51.670;5.808;2023-07-24T05:01:54;3.33;;;2.40;;
62584;SDS011;48643;51.670;5.808;2023-07-24T05:04:21;3.10;;;2.35;;
62584;SDS011;48643;51.670;5.808;2023-07-24T05:06:48;2.95;;;2.38;;
62584;SDS011;48643;51.670;5.808;2023-07-24T05:09:14;3.80;;;2.72;;
62584;SDS011;48643;51.670;5.808;2023-07-24T05:11:41;3.20;;;2.50;;
62584;SDS011;48643;51.670;5.808;2023-07-24T05:14:11;3.35;;;2.42;;
62584;SDS011;48643;51.670;5.808;2023-07-24T05:16:37;3.22;;;2.67;;
62584;SDS011;48643;51.670;5.808;2023-07-24T05:19:04;4.07;;;2.40;;
62584;SDS011;48643;51.670;5.808;2023-07-24T05:21:31;4.22;;;2.60;;
62584;SDS011;48643;51.670;5.808;2023-07-24T05:23:59;3.25;;;2.70;;
62584;SDS011;48643;51.670;5.808;2023-07-24T05:26:26;4.35;;;2.60;;
62584;SDS011;48643;51.670;5.808;2023-07-24T05:28:53;3.45;;;2.40;;
62584;SDS011;48643;51.670;5.808;2023-07-24T05:31:20;3.88;;;2.40;;
62584;SDS011;48643;51.670;5.808;2023-07-24T05:33:47;2.75;;;2.38;;
62584;SDS011;48643;51.670;5.808;2023-07-24T05:36:14;3.65;;;2.60;;
62584;SDS011;48643;51.670;5.808;2023-07-24T05:38:40;3.22;;;2.53;;
62584;SDS011;48643;51.670;5.808;2023-07-24T05:41:07;3.75;;;2.60;;
62584;SDS011;48643;51.670;5.808;2023-07-24T05:43:34;3.17;;;2.40;;
62584;SDS011;48643;51.670;5.808;2023-07-24T05:46:01;3.20;;;2.40;;
62584;SDS011;48643;51.670;5.808;2023-07-24T05:48:28;3.05;;;2.40;;
62584;SDS011;48643;51.670;5.808;2023-07-24T05:50:55;3.20;;;2.55;;
62584;SDS011;48643;51.670;5.808;2023-07-24T05:53:22;3.20;;;2.50;;
62584;SDS011;48643;51.670;5.808;2023-07-24T05:55:55;3.95;;;2.50;;
62584;SDS011;48643;51.670;5.808;2023-07-24T05:58:26;4.28;;;2.50;;
62584;SDS011;48643;51.670;5.808;2023-07-24T06:00:53;2.92;;;2.63;;
62584;SDS011;48643;51.670;5.808;2023-07-24T06:03:22;4.28;;;2.80;;
62584;SDS011;48643;51.670;5.808;2023-07-24T06:05:53;5.30;;;2.60;;
62584;SDS011;48643;51.670;5.808;2023-07-24T06:08:20;3.10;;;2.40;;
62584;SDS011;48643;51.670;5.808;2023-07-24T06:10:47;3.80;;;2.70;;
62584;SDS011;48643;51.670;5.808;2023-07-24T06:13:15;3.28;;;2.63;;
62584;SDS011;48643;51.670;5.808;2023-07-24T06:15:43;3.60;;;2.58;;
62584;SDS011;48643;51.670;5.808;2023-07-24T06:18:10;3.00;;;2.50;;
62584;SDS011;48643;51.670;5.808;2023-07-24T06:20:37;3.83;;;2.80;;
62584;SDS011;48643;51.670;5.808;2023-07-24T06:23:04;3.70;;;2.60;;
62584;SDS011;48643;51.670;5.808;2023-07-24T06:25:31;2.90;;;2.42;;
62584;SDS011;48643;51.670;5.808;2023-07-24T06:27:58;3.45;;;2.60;;
62584;SDS011;48643;51.670;5.808;2023-07-24T06:30:25;3.47;;;2.78;;
62584;SDS011;48643;51.670;5.808;2023-07-24T06:32:52;3.42;;;2.45;;
62584;SDS011;48643;51.670;5.808;2023-07-24T06:35:19;3.38;;;2.53;;
62584;SDS011;48643;51.670;5.808;2023-07-24T06:37:46;3.17;;;2.50;;
62584;SDS011;48643;51.670;5.808;2023-07-24T06:40:13;3.17;;;2.67;;
62584;SDS011;48643;51.670;5.808;2023-07-24T06:42:39;6.78;;;4.65;;
62584;SDS011;48643;51.670;5.808;2023-07-24T06:45:06;11.90;;;5.03;;
62584;SDS011;48643;51.670;5.808;2023-07-24T06:47:34;8.25;;;5.82;;
62584;SDS011;48643;51.670;5.808;2023-07-24T06:50:01;10.10;;;5.75;;
62584;SDS011;48643;51.670;5.808;2023-07-24T06:52:29;9.15;;;6.22;;
62584;SDS011;48643;51.670;5.808;2023-07-24T06:54:55;7.85;;;5.78;;
62584;SDS011;48643;51.670;5.808;2023-07-24T06:57:24;8.05;;;6.00;;
62584;SDS011;48643;51.670;5.808;2023-07-24T06:59:51;9.60;;;6.10;;
62584;SDS011;48643;51.670;5.808;2023-07-24T07:02:20;9.82;;;6.00;;
62584;SDS011;48643;51.670;5.808;2023-07-24T07:04:47;9.27;;;6.18;;
62584;SDS011;48643;51.670;5.808;2023-07-24T07:07:14;10.60;;;6.03;;
62584;SDS011;48643;51.670;5.808;2023-07-24T07:09:41;11.13;;;6.30;;
62584;SDS011;48643;51.670;5.808;2023-07-24T07:12:08;10.85;;;6.20;;
62584;SDS011;48643;51.670;5.808;2023-07-24T07:14:34;13.52;;;6.97;;
62584;SDS011;48643;51.670;5.808;2023-07-24T07:17:01;9.70;;;6.50;;
62584;SDS011;48643;51.670;5.808;2023-07-24T07:19:28;10.80;;;7.05;;
62584;SDS011;48643;51.670;5.808;2023-07-24T07:21:55;9.20;;;6.50;;
62584;SDS011;48643;51.670;5.808;2023-07-24T07:24:22;11.90;;;7.43;;
62584;SDS011;48643;51.670;5.808;2023-07-24T07:26:49;14.75;;;7.72;;
62584;SDS011;48643;51.670;5.808;2023-07-24T07:29:15;12.90;;;7.55;;
62584;SDS011;48643;51.670;5.808;2023-07-24T07:31:42;12.00;;;8.30;;
62584;SDS011;48643;51.670;5.808;2023-07-24T07:34:09;14.00;;;8.20;;
62584;SDS011;48643;51.670;5.808;2023-07-24T07:36:36;10.13;;;7.85;;
62584;SDS011;48643;51.670;5.808;2023-07-24T07:39:02;14.02;;;9.30;;
62584;SDS011;48643;51.670;5.808;2023-07-24T07:41:29;13.82;;;8.88;;
62584;SDS011;48643;51.670;5.808;2023-07-24T07:43:57;13.50;;;8.43;;
62584;SDS011;48643;51.670;5.808;2023-07-24T07:46:23;14.43;;;9.10;;
62584;SDS011;48643;51.670;5.808;2023-07-24T07:48:50;12.70;;;8.07;;
62584;SDS011;48643;51.670;5.808;2023-07-24T07:51:17;12.57;;;7.30;;
62584;SDS011;48643;51.670;5.808;2023-07-24T07:53:44;11.77;;;6.72;;
62584;SDS011;48643;51.670;5.808;2023-07-24T07:56:11;11.25;;;6.30;;
62584;SDS011;48643;51.670;5.808;2023-07-24T07:58:37;12.23;;;6.35;;
62584;SDS011;48643;51.670;5.808;2023-07-24T08:01:05;12.00;;;6.40;;
62584;SDS011;48643;51.670;5.808;2023-07-24T08:03:32;9.80;;;6.15;;
62584;SDS011;48643;51.670;5.808;2023-07-24T08:05:59;9.13;;;5.75;;
62584;SDS011;48643;51.670;5.808;2023-07-24T08:08:26;9.18;;;5.90;;
62584;SDS011;48643;51.670;5.808;2023-07-24T08:10:53;11.43;;;6.10;;
62584;SDS011;48643;51.670;5.808;2023-07-24T08:13:20;7.63;;;5.57;;
62584;SDS011;48643;51.670;5.808;2023-07-24T08:15:47;8.85;;;5.60;;
62584;SDS011;48643;51.670;5.808;2023-07-24T08:18:15;15.00;;;5.57;;
62584;SDS011;48643;51.670;5.808;2023-07-24T08:20:42;12.70;;;5.45;;
62584;SDS011;48643;51.670;5.808;2023-07-24T08:23:09;10.88;;;5.70;;
62584;SDS011;48643;51.670;5.808;2023-07-24T08:25:36;10.45;;;5.72;;
62584;SDS011;48643;51.670;5.808;2023-07-24T08:28:03;10.52;;;5.65;;
62584;SDS011;48643;51.670;5.808;2023-07-24T08:33:00;8.15;;;4.97;;
62584;SDS011;48643;51.670;5.808;2023-07-24T08:35:27;9.27;;;4.97;;
62584;SDS011;48643;51.670;5.808;2023-07-24T08:37:54;9.98;;;4.95;;
62584;SDS011;48643;51.670;5.808;2023-07-24T08:40:21;7.93;;;4.82;;
62584;SDS011;48643;51.670;5.808;2023-07-24T08:42:49;9.13;;;4.60;;
62584;SDS011;48643;51.670;5.808;2023-07-24T08:45:17;8.75;;;4.68;;
62584;SDS011;48643;51.670;5.808;2023-07-24T08:47:44;10.00;;;4.63;;
62584;SDS011;48643;51.670;5.808;2023-07-24T08:50:12;8.57;;;4.55;;
62584;SDS011;48643;51.670;5.808;2023-07-24T08:52:41;7.72;;;4.78;;
62584;SDS011;48643;51.670;5.808;2023-07-24T08:55:09;7.65;;;4.70;;
62584;SDS011;48643;51.670;5.808;2023-07-24T08:57:37;7.07;;;4.67;;
62584;SDS011;48643;51.670;5.808;2023-07-24T09:00:04;7.15;;;4.65;;
62584;SDS011;48643;51.670;5.808;2023-07-24T09:02:32;7.18;;;4.53;;
62584;SDS011;48643;51.670;5.808;2023-07-24T09:05:00;7.63;;;5.07;;
62584;SDS011;48643;51.670;5.808;2023-07-24T09:07:27;7.82;;;5.03;;
62584;SDS011;48643;51.670;5.808;2023-07-24T09:09:53;13.73;;;5.22;;
62584;SDS011;48643;51.670;5.808;2023-07-24T09:12:21;8.05;;;5.25;;
62584;SDS011;48643;51.670;5.808;2023-07-24T09:17:27;11.13;;;5.97;;
62584;SDS011;48643;51.670;5.808;2023-07-24T09:19:55;9.00;;;5.53;;
62584;SDS011;48643;51.670;5.808;2023-07-24T09:24:53;9.45;;;5.85;;
62584;SDS011;48643;51.670;5.808;2023-07-24T09:27:24;7.78;;;6.15;;
62584;SDS011;48643;51.670;5.808;2023-07-24T09:29:53;10.18;;;6.50;;
62584;SDS011;48643;51.670;5.808;2023-07-24T09:32:24;9.48;;;6.25;;
62584;SDS011;48643;51.670;5.808;2023-07-24T09:34:52;9.60;;;6.15;;
62584;SDS011;48643;51.670;5.808;2023-07-24T09:37:26;9.27;;;6.03;;
62584;SDS011;48643;51.670;5.808;2023-07-24T09:39:54;11.75;;;6.20;;
62584;SDS011;48643;51.670;5.808;2023-07-24T09:42:34;10.45;;;5.70;;
62584;SDS011;48643;51.670;5.808;2023-07-24T09:45:18;10.02;;;6.03;;
62584;SDS011;48643;51.670;5.808;2023-07-24T09:47:49;9.15;;;6.68;;
62584;SDS011;48643;51.670;5.808;2023-07-24T09:50:25;9.32;;;5.35;;
62584;SDS011;48643;51.670;5.808;2023-07-24T09:52:52;8.65;;;6.15;;
62584;SDS011;48643;51.670;5.808;2023-07-24T09:55:25;8.20;;;5.82;;
62584;SDS011;48643;51.670;5.808;2023-07-24T09:57:55;8.02;;;6.45;;
62584;SDS011;48643;51.670;5.808;2023-07-24T10:00:23;9.20;;;6.38;;
62584;SDS011;48643;51.670;5.808;2023-07-24T10:02:51;9.88;;;6.75;;
62584;SDS011;48643;51.670;5.808;2023-07-24T10:05:18;7.35;;;5.90;;
62584;SDS011;48643;51.670;5.808;2023-07-24T10:07:45;7.40;;;5.93;;
62584;SDS011;48643;51.670;5.808;2023-07-24T10:10:12;7.65;;;5.68;;
62584;SDS011;48643;51.670;5.808;2023-07-24T10:12:39;7.93;;;5.45;;
62584;SDS011;48643;51.670;5.808;2023-07-24T10:15:08;10.35;;;5.90;;
62584;SDS011;48643;51.670;5.808;2023-07-24T10:17:39;13.10;;;6.10;;
62584;SDS011;48643;51.670;5.808;2023-07-24T10:20:08;7.57;;;6.00;;
62584;SDS011;48643;51.670;5.808;2023-07-24T10:22:36;7.38;;;5.57;;
62584;SDS011;48643;51.670;5.808;2023-07-24T10:25:08;10.38;;;5.18;;
62584;SDS011;48643;51.670;5.808;2023-07-24T10:27:39;10.17;;;5.13;;
62584;SDS011;48643;51.670;5.808;2023-07-24T10:30:08;7.35;;;5.20;;
62584;SDS011;48643;51.670;5.808;2023-07-24T10:33:03;9.52;;;5.22;;
62584;SDS011;48643;51.670;5.808;2023-07-24T10:35:41;7.28;;;4.88;;
62584;SDS011;48643;51.670;5.808;2023-07-24T10:38:13;8.33;;;4.77;;
62584;SDS011;48643;51.670;5.808;2023-07-24T10:40:42;11.20;;;4.60;;
62584;SDS011;48643;51.670;5.808;2023-07-24T10:43:11;5.82;;;4.45;;
62584;SDS011;48643;51.670;5.808;2023-07-24T10:45:40;8.52;;;4.25;;
62584;SDS011;48643;51.670;5.808;2023-07-24T10:48:17;6.72;;;4.30;;
62584;SDS011;48643;51.670;5.808;2023-07-24T10:50:45;7.07;;;4.00;;
62584;SDS011;48643;51.670;5.808;2023-07-24T10:53:17;7.13;;;4.32;;
62584;SDS011;48643;51.670;5.808;2023-07-24T10:55:45;7.05;;;3.92;;
62584;SDS011;48643;51.670;5.808;2023-07-24T10:58:13;7.38;;;4.30;;
62584;SDS011;48643;51.670;5.808;2023-07-24T11:00:44;6.20;;;4.20;;
62584;SDS011;48643;51.670;5.808;2023-07-24T11:03:11;8.80;;;4.00;;
62584;SDS011;48643;51.670;5.808;2023-07-24T11:05:43;15.00;;;4.68;;
62584;SDS011;48643;51.670;5.808;2023-07-24T11:08:11;13.18;;;4.60;;
62584;SDS011;48643;51.670;5.808;2023-07-24T11:13:14;5.93;;;4.22;;
62584;SDS011;48643;51.670;5.808;2023-07-24T11:15:41;5.55;;;4.00;;
62584;SDS011;48643;51.670;5.808;2023-07-24T11:18:09;7.15;;;4.00;;
62584;SDS011;48643;51.670;5.808;2023-07-24T11:20:37;5.55;;;3.92;;
62584;SDS011;48643;51.670;5.808;2023-07-24T11:23:14;8.43;;;3.92;;
62584;SDS011;48643;51.670;5.808;2023-07-24T11:25:41;8.55;;;3.88;;
62584;SDS011;48643;51.670;5.808;2023-07-24T11:28:09;7.65;;;3.90;;
62584;SDS011;48643;51.670;5.808;2023-07-24T11:30:38;9.02;;;4.13;;
62584;SDS011;48643;51.670;5.808;2023-07-24T11:33:05;9.48;;;4.03;;
62584;SDS011;48643;51.670;5.808;2023-07-24T11:35:34;5.95;;;4.05;;
62584;SDS011;48643;51.670;5.808;2023-07-24T11:38:01;7.45;;;3.80;;
62584;SDS011;48643;51.670;5.808;2023-07-24T11:40:34;7.13;;;3.95;;
62584;SDS011;48643;51.670;5.808;2023-07-24T11:43:17;5.97;;;4.03;;
62584;SDS011;48643;51.670;5.808;2023-07-24T11:45:51;9.23;;;3.67;;
62584;SDS011;48643;51.670;5.808;2023-07-24T11:48:23;5.97;;;4.07;;
62584;SDS011;48643;51.670;5.808;2023-07-24T11:50:51;7.20;;;3.35;;
62584;SDS011;48643;51.670;5.808;2023-07-24T11:53:21;5.10;;;3.20;;
62584;SDS011;48643;51.670;5.808;2023-07-24T11:55:50;6.88;;;5.97;;
62584;SDS011;48643;51.670;5.808;2023-07-24T11:58:17;7.80;;;3.40;;
62584;SDS011;48643;51.670;5.808;2023-07-24T12:00:46;7.40;;;3.45;;
62584;SDS011;48643;51.670;5.808;2023-07-24T12:03:14;4.28;;;3.20;;
62584;SDS011;48643;51.670;5.808;2023-07-24T12:06:01;4.33;;;3.30;;
62584;SDS011;48643;51.670;5.808;2023-07-24T12:08:29;7.18;;;3.58;;
62584;SDS011;48643;51.670;5.808;2023-07-24T12:10:57;5.25;;;3.45;;
62584;SDS011;48643;51.670;5.808;2023-07-24T12:13:24;5.13;;;3.60;;
62584;SDS011;48643;51.670;5.808;2023-07-24T12:15:51;5.55;;;3.80;;
62584;SDS011;48643;51.670;5.808;2023-07-24T12:18:18;8.75;;;4.55;;
62584;SDS011;48643;51.670;5.808;2023-07-24T12:20:45;6.78;;;4.35;;
62584;SDS011;48643;51.670;5.808;2023-07-24T12:23:12;5.10;;;3.60;;
62584;SDS011;48643;51.670;5.808;2023-07-24T12:25:38;4.93;;;3.22;;
62584;SDS011;48643;51.670;5.808;2023-07-24T12:28:05;7.75;;;3.40;;
62584;SDS011;48643;51.670;5.808;2023-07-24T12:30:32;4.93;;;3.20;;
62584;SDS011;48643;51.670;5.808;2023-07-24T12:32:59;5.50;;;2.80;;
62584;SDS011;48643;51.670;5.808;2023-07-24T12:35:26;5.60;;;3.20;;
62584;SDS011;48643;51.670;5.808;2023-07-24T12:37:53;5.13;;;2.90;;
62584;SDS011;48643;51.670;5.808;2023-07-24T12:40:20;5.40;;;3.10;;
62584;SDS011;48643;51.670;5.808;2023-07-24T12:42:46;10.00;;;8.48;;
62584;SDS011;48643;51.670;5.808;2023-07-24T12:45:13;10.88;;;8.48;;
62584;SDS011;48643;51.670;5.808;2023-07-24T12:47:40;4.50;;;3.33;;
62584;SDS011;48643;51.670;5.808;2023-07-24T12:50:07;10.35;;;7.93;;
62584;SDS011;48643;51.670;5.808;2023-07-24T12:52:35;4.90;;;3.28;;
62584;SDS011;48643;51.670;5.808;2023-07-24T12:55:01;5.55;;;3.30;;
62584;SDS011;48643;51.670;5.808;2023-07-24T12:57:29;4.72;;;3.50;;
62584;SDS011;48643;51.670;5.808;2023-07-24T12:59:56;4.20;;;2.92;;
62584;SDS011;48643;51.670;5.808;2023-07-24T13:02:22;4.28;;;3.05;;
62584;SDS011;48643;51.670;5.808;2023-07-24T13:04:49;4.38;;;3.10;;
62584;SDS011;48643;51.670;5.808;2023-07-24T13:07:16;3.72;;;2.97;;
62584;SDS011;48643;51.670;5.808;2023-07-24T13:09:43;5.70;;;4.47;;
62584;SDS011;48643;51.670;5.808;2023-07-24T13:12:10;5.03;;;3.70;;
62584;SDS011;48643;51.670;5.808;2023-07-24T13:14:37;3.90;;;3.10;;
62584;SDS011;48643;51.670;5.808;2023-07-24T13:17:07;4.50;;;3.20;;
62584;SDS011;48643;51.670;5.808;2023-07-24T13:19:35;3.60;;;3.05;;
62584;SDS011;48643;51.670;5.808;2023-07-24T13:22:02;3.65;;;3.05;;
62584;SDS011;48643;51.670;5.808;2023-07-24T13:24:29;4.47;;;3.70;;
62584;SDS011;48643;51.670;5.808;2023-07-24T13:26:56;5.35;;;3.85;;
62584;SDS011;48643;51.670;5.808;2023-07-24T13:29:22;5.20;;;4.35;;
62584;SDS011;48643;51.670;5.808;2023-07-24T13:34:18;4.88;;;4.07;;
62584;SDS011;48643;51.670;5.808;2023-07-24T13:36:46;4.32;;;3.47;;
62584;SDS011;48643;51.670;5.808;2023-07-24T13:39:13;4.47;;;4.07;;
62584;SDS011;48643;51.670;5.808;2023-07-24T13:41:41;4.80;;;4.20;;
62584;SDS011;48643;51.670;5.808;2023-07-24T13:44:08;5.07;;;3.97;;
62584;SDS011;48643;51.670;5.808;2023-07-24T13:46:35;4.65;;;4.20;;
62584;SDS011;48643;51.670;5.808;2023-07-24T13:49:05;4.35;;;3.83;;
62584;SDS011;48643;51.670;5.808;2023-07-24T13:51:33;3.95;;;3.30;;
62584;SDS011;48643;51.670;5.808;2023-07-24T13:54:00;4.25;;;3.30;;
62584;SDS011;48643;51.670;5.808;2023-07-24T13:56:28;3.58;;;3.17;;
62584;SDS011;48643;51.670;5.808;2023-07-24T13:58:59;4.90;;;3.63;;
62584;SDS011;48643;51.670;5.808;2023-07-24T14:01:26;5.13;;;3.20;;
62584;SDS011;48643;51.670;5.808;2023-07-24T14:03:53;4.88;;;3.40;;
62584;SDS011;48643;51.670;5.808;2023-07-24T14:06:20;4.90;;;3.40;;
62584;SDS011;48643;51.670;5.808;2023-07-24T14:08:47;5.63;;;3.10;;
62584;SDS011;48643;51.670;5.808;2023-07-24T14:11:14;4.55;;;3.88;;
62584;SDS011;48643;51.670;5.808;2023-07-24T14:13:41;5.15;;;4.60;;
62584;SDS011;48643;51.670;5.808;2023-07-24T14:16:08;4.68;;;4.15;;
62584;SDS011;48643;51.670;5.808;2023-07-24T14:18:35;6.30;;;4.97;;
62584;SDS011;48643;51.670;5.808;2023-07-24T14:21:01;5.47;;;3.70;;
62584;SDS011;48643;51.670;5.808;2023-07-24T14:23:28;5.05;;;3.90;;
62584;SDS011;48643;51.670;5.808;2023-07-24T14:25:55;5.18;;;4.40;;
62584;SDS011;48643;51.670;5.808;2023-07-24T14:28:22;5.72;;;3.80;;
62584;SDS011;48643;51.670;5.808;2023-07-24T14:30:49;4.38;;;3.17;;
62584;SDS011;48643;51.670;5.808;2023-07-24T14:33:16;3.90;;;2.83;;
62584;SDS011;48643;51.670;5.808;2023-07-24T14:35:42;5.15;;;4.28;;
62584;SDS011;48643;51.670;5.808;2023-07-24T14:38:09;5.70;;;4.30;;
62584;SDS011;48643;51.670;5.808;2023-07-24T14:40:36;5.05;;;3.33;;
62584;SDS011;48643;51.670;5.808;2023-07-24T14:43:03;5.18;;;3.40;;
62584;SDS011;48643;51.670;5.808;2023-07-24T14:45:33;9.23;;;4.30;;
62584;SDS011;48643;51.670;5.808;2023-07-24T14:48:00;6.82;;;4.53;;
62584;SDS011;48643;51.670;5.808;2023-07-24T14:50:27;6.97;;;4.20;;
62584;SDS011;48643;51.670;5.808;2023-07-24T14:52:54;11.75;;;8.38;;
62584;SDS011;48643;51.670;5.808;2023-07-24T14:55:21;10.30;;;5.00;;
62584;SDS011;48643;51.670;5.808;2023-07-24T14:57:48;7.05;;;4.00;;
62584;SDS011;48643;51.670;5.808;2023-07-24T15:00:15;9.60;;;4.10;;
62584;SDS011;48643;51.670;5.808;2023-07-24T15:02:42;6.72;;;4.40;;